createdAt,value
2019-03-29T00:00:17.235Z,1020.83
2019-03-29T00:01:17.227Z,1020.77
2019-03-29T00:02:17.340Z,1020.82
2019-03-29T00:03:17.201Z,1020.79
2019-03-29T00:04:22.231Z,1020.85
2019-03-29T00:05:17.179Z,1020.83
2019-03-29T00:06:17.168Z,1020.75
2019-03-29T00:07:17.179Z,1020.85
2019-03-29T00:08:17.151Z,1020.80
2019-03-29T00:09:17.156Z,1020.81
2019-03-29T00:10:17.125Z,1020.75
2019-03-29T00:11:17.111Z,1020.79
2019-03-29T00:12:17.103Z,1020.81
2019-03-29T00:13:17.090Z,1020.86
2019-03-29T00:14:17.099Z,1020.89
2019-03-29T00:15:22.092Z,1020.77
2019-03-29T00:16:17.057Z,1020.82
2019-03-29T00:17:17.963Z,1020.85
2019-03-29T00:18:17.035Z,1020.83
2019-03-29T00:19:17.034Z,1020.81
2019-03-29T00:20:17.030Z,1020.85
2019-03-29T00:21:16.999Z,1020.81
2019-03-29T00:22:16.990Z,1020.79
2019-03-29T00:23:16.982Z,1020.74
2019-03-29T00:24:16.979Z,1020.78
2019-03-29T00:25:16.964Z,1020.75
2019-03-29T00:26:21.966Z,1020.76
2019-03-29T00:27:16.934Z,1020.72
2019-03-29T00:28:16.922Z,1020.73
2019-03-29T00:29:16.925Z,1020.73
2019-03-29T00:30:16.902Z,1020.70
2019-03-29T00:31:16.887Z,1020.73
2019-03-29T00:32:16.879Z,1020.71
2019-03-29T00:33:16.872Z,1020.66
2019-03-29T00:34:16.865Z,1020.65
2019-03-29T00:35:16.868Z,1020.69
2019-03-29T00:36:16.831Z,1020.59
2019-03-29T00:37:21.847Z,1020.57
2019-03-29T00:38:16.809Z,1020.60
2019-03-29T00:39:16.814Z,1020.69
2019-03-29T00:40:16.808Z,1020.63
2019-03-29T00:41:16.776Z,1020.62
2019-03-29T00:42:17.127Z,1020.61
2019-03-29T00:43:16.749Z,1020.61
2019-03-29T00:44:16.748Z,1020.55
2019-03-29T00:45:16.729Z,1020.53
2019-03-29T00:46:16.723Z,1020.53
2019-03-29T00:47:16.716Z,1020.59
2019-03-29T00:48:21.969Z,1020.57
2019-03-29T00:49:16.696Z,1020.61
2019-03-29T00:50:16.679Z,1020.60
2019-03-29T00:51:16.663Z,1020.62
2019-03-29T00:52:16.935Z,1020.57
2019-03-29T00:53:16.640Z,1020.59
2019-03-29T00:54:16.639Z,1020.55
2019-03-29T00:55:16.620Z,1020.63
2019-03-29T00:56:16.611Z,1020.57
2019-03-29T00:57:16.596Z,1020.53
2019-03-29T00:58:16.602Z,1020.53
2019-03-29T00:59:21.605Z,1020.57
2019-03-29T01:00:16.572Z,1020.54
2019-03-29T01:01:16.559Z,1020.56
2019-03-29T01:02:16.537Z,1020.57
2019-03-29T01:03:16.534Z,1020.56
2019-03-29T01:04:16.532Z,1020.57
2019-03-29T01:05:16.504Z,1020.55
2019-03-29T01:06:16.497Z,1020.53
2019-03-29T01:07:16.485Z,1020.46
2019-03-29T01:08:16.475Z,1020.41
2019-03-29T01:09:16.483Z,1020.42
2019-03-29T01:10:22.218Z,1020.52
2019-03-29T01:11:16.442Z,1020.49
2019-03-29T01:12:16.430Z,1020.52
2019-03-29T01:13:16.417Z,1020.50
2019-03-29T01:14:16.929Z,1020.51
2019-03-29T01:15:16.410Z,1020.57
2019-03-29T01:16:16.381Z,1020.56
2019-03-29T01:17:16.372Z,1020.57
2019-03-29T01:18:16.358Z,1020.53
2019-03-29T01:19:16.363Z,1020.48
2019-03-29T01:20:16.350Z,1020.46
2019-03-29T01:21:21.354Z,1020.51
2019-03-29T01:22:16.315Z,1020.39
2019-03-29T01:23:16.311Z,1020.49
2019-03-29T01:24:16.299Z,1020.48
2019-03-29T01:25:16.280Z,1020.46
2019-03-29T01:26:16.273Z,1020.45
2019-03-29T01:27:16.260Z,1020.44
2019-03-29T01:28:16.248Z,1020.50
2019-03-29T01:29:16.244Z,1020.41
2019-03-29T01:30:16.225Z,1020.34
2019-03-29T01:31:16.215Z,1020.43
2019-03-29T01:32:21.236Z,1020.52
2019-03-29T01:33:16.190Z,1020.48
2019-03-29T01:34:16.994Z,1020.38
2019-03-29T01:35:16.166Z,1020.48
2019-03-29T01:36:16.200Z,1020.47
2019-03-29T01:37:16.155Z,1020.39
2019-03-29T01:38:22.219Z,1020.39
2019-03-29T01:39:17.249Z,1020.38
2019-03-29T01:40:16.122Z,1020.36
2019-03-29T01:41:16.108Z,1020.31
2019-03-29T01:42:16.091Z,1020.38
2019-03-29T01:43:21.106Z,1020.33
2019-03-29T01:44:16.100Z,1020.35
2019-03-29T01:45:16.057Z,1020.34
2019-03-29T01:46:16.048Z,1020.30
2019-03-29T01:47:16.031Z,1020.32
2019-03-29T01:48:16.028Z,1020.37
2019-03-29T01:49:16.246Z,1020.37
2019-03-29T01:50:16.012Z,1020.31
2019-03-29T01:51:15.987Z,1020.38
2019-03-29T01:52:15.976Z,1020.36
2019-03-29T01:53:15.966Z,1020.36
2019-03-29T01:54:20.987Z,1020.35
2019-03-29T01:55:15.984Z,1020.33
2019-03-29T01:56:15.935Z,1020.27
2019-03-29T01:57:15.922Z,1020.36
2019-03-29T01:58:15.910Z,1020.28
2019-03-29T01:59:16.977Z,1020.26
2019-03-29T02:00:15.883Z,1020.25
2019-03-29T02:01:15.888Z,1020.23
2019-03-29T02:02:15.871Z,1020.20
2019-03-29T02:03:15.853Z,1020.16
2019-03-29T02:04:15.851Z,1020.24
2019-03-29T02:05:20.858Z,1020.15
2019-03-29T02:06:15.814Z,1020.18
2019-03-29T02:07:15.812Z,1020.19
2019-03-29T02:08:15.794Z,1020.13
2019-03-29T02:09:15.792Z,1020.14
2019-03-29T02:10:15.772Z,1020.12
2019-03-29T02:11:15.768Z,1020.12
2019-03-29T02:12:15.747Z,1020.08
2019-03-29T02:13:15.742Z,1020.08
2019-03-29T02:14:15.743Z,1020.09
2019-03-29T02:15:15.726Z,1020.13
2019-03-29T02:16:20.734Z,1020.12
2019-03-29T02:17:15.693Z,1020.09
2019-03-29T02:18:15.687Z,1020.08
2019-03-29T02:19:15.670Z,1020.02
2019-03-29T02:20:15.682Z,1020.02
2019-03-29T02:21:16.925Z,1020.11
2019-03-29T02:22:15.635Z,1020.13
2019-03-29T02:23:15.624Z,1020.09
2019-03-29T02:24:15.613Z,1020.11
2019-03-29T02:25:16.144Z,1020.12
2019-03-29T02:26:15.604Z,1020.15
2019-03-29T02:27:20.607Z,1020.10
2019-03-29T02:28:15.576Z,1020.17
2019-03-29T02:29:15.556Z,1020.14
2019-03-29T02:30:15.566Z,1020.15
2019-03-29T02:31:15.552Z,1020.17
2019-03-29T02:32:15.535Z,1020.16
2019-03-29T02:33:15.511Z,1020.12
2019-03-29T02:34:16.072Z,1020.10
2019-03-29T02:35:15.503Z,1020.07
2019-03-29T02:36:15.480Z,1020.10
2019-03-29T02:37:15.493Z,1020.08
2019-03-29T02:38:20.487Z,1020.01
2019-03-29T02:39:15.453Z,1020.03
2019-03-29T02:40:15.462Z,1020.01
2019-03-29T02:41:15.425Z,1020.02
2019-03-29T02:42:15.411Z,1020.03
2019-03-29T02:43:15.406Z,1019.97
2019-03-29T02:44:15.387Z,1019.98
2019-03-29T02:45:15.385Z,1019.99
2019-03-29T02:46:15.362Z,1019.98
2019-03-29T02:47:15.353Z,1020.01
2019-03-29T02:48:16.755Z,1019.98
2019-03-29T02:49:20.381Z,1019.92
2019-03-29T02:50:15.364Z,1019.92
2019-03-29T02:51:15.314Z,1019.94
2019-03-29T02:52:15.296Z,1019.93
2019-03-29T02:53:15.283Z,1019.89
2019-03-29T02:54:15.283Z,1019.90
2019-03-29T02:55:15.283Z,1019.98
2019-03-29T02:56:15.256Z,1019.95
2019-03-29T02:57:15.242Z,1019.88
2019-03-29T02:58:15.228Z,1019.92
2019-03-29T02:59:15.221Z,1019.94
2019-03-29T03:00:20.245Z,1019.96
2019-03-29T03:01:15.206Z,1019.88
2019-03-29T03:02:15.184Z,1019.93
2019-03-29T03:03:15.173Z,1019.81
2019-03-29T03:04:15.170Z,1019.90
2019-03-29T03:05:15.169Z,1019.85
2019-03-29T03:06:15.152Z,1019.91
2019-03-29T03:07:15.127Z,1019.88
2019-03-29T03:08:15.135Z,1019.87
2019-03-29T03:09:15.130Z,1019.88
2019-03-29T03:10:15.103Z,1019.85
2019-03-29T03:11:20.110Z,1019.88
2019-03-29T03:12:15.080Z,1019.89
2019-03-29T03:13:15.064Z,1019.91
2019-03-29T03:14:15.050Z,1019.89
2019-03-29T03:15:15.051Z,1019.87
2019-03-29T03:16:15.045Z,1019.90
2019-03-29T03:17:15.018Z,1019.92
2019-03-29T03:18:15.015Z,1019.90
2019-03-29T03:19:14.990Z,1019.90
2019-03-29T03:20:15.874Z,1019.89
2019-03-29T03:21:14.974Z,1019.92
2019-03-29T03:22:20.000Z,1019.90
2019-03-29T03:23:14.967Z,1019.86
2019-03-29T03:24:15.078Z,1019.93
2019-03-29T03:25:14.934Z,1019.84
2019-03-29T03:26:14.916Z,1019.81
2019-03-29T03:27:14.906Z,1019.92
2019-03-29T03:28:14.904Z,1019.82
2019-03-29T03:29:14.885Z,1019.82
2019-03-29T03:30:14.879Z,1019.86
2019-03-29T03:31:14.909Z,1019.82
2019-03-29T03:32:14.863Z,1019.88
2019-03-29T03:33:19.869Z,1019.82
2019-03-29T03:34:14.826Z,1019.90
2019-03-29T03:35:14.846Z,1019.89
2019-03-29T03:36:14.802Z,1019.83
2019-03-29T03:37:14.789Z,1019.76
2019-03-29T03:38:14.778Z,1019.88
2019-03-29T03:39:30.545Z,1019.85
2019-03-29T03:40:15.766Z,1019.80
2019-03-29T03:41:14.747Z,1019.81
2019-03-29T03:42:14.733Z,1019.74
2019-03-29T03:43:14.722Z,1019.77
2019-03-29T03:44:19.732Z,1019.68
2019-03-29T03:45:14.712Z,1019.73
2019-03-29T03:46:14.691Z,1019.72
2019-03-29T03:47:14.676Z,1019.78
2019-03-29T03:48:14.667Z,1019.77
2019-03-29T03:49:14.653Z,1019.75
2019-03-29T03:50:14.655Z,1019.84
2019-03-29T03:51:14.631Z,1019.78
2019-03-29T03:52:14.646Z,1019.73
2019-03-29T03:53:14.611Z,1019.79
2019-03-29T03:54:14.600Z,1019.78
2019-03-29T03:55:19.620Z,1019.80
2019-03-29T03:56:14.591Z,1019.74
2019-03-29T03:57:14.562Z,1019.73
2019-03-29T03:58:14.561Z,1019.71
2019-03-29T03:59:14.547Z,1019.70
2019-03-29T04:00:14.545Z,1019.76
2019-03-29T04:01:14.557Z,1019.78
2019-03-29T04:02:14.517Z,1019.77
2019-03-29T04:03:14.503Z,1019.72
2019-03-29T04:04:14.499Z,1019.74
2019-03-29T04:05:14.485Z,1019.75
2019-03-29T04:06:19.485Z,1019.75
2019-03-29T04:07:14.467Z,1019.76
2019-03-29T04:08:14.439Z,1019.77
2019-03-29T04:09:14.477Z,1019.78
2019-03-29T04:10:14.434Z,1019.82
2019-03-29T04:11:14.411Z,1019.69
2019-03-29T04:12:14.408Z,1019.75
2019-03-29T04:13:14.384Z,1019.74
2019-03-29T04:14:14.372Z,1019.76
2019-03-29T04:15:14.373Z,1019.72
2019-03-29T04:16:14.347Z,1019.80
2019-03-29T04:17:19.365Z,1019.82
2019-03-29T04:18:16.056Z,1019.77
2019-03-29T04:19:14.315Z,1019.75
2019-03-29T04:20:14.326Z,1019.76
2019-03-29T04:21:14.292Z,1019.71
2019-03-29T04:22:14.280Z,1019.72
2019-03-29T04:23:14.270Z,1019.73
2019-03-29T04:24:14.257Z,1019.71
2019-03-29T04:25:14.259Z,1019.68
2019-03-29T04:26:14.240Z,1019.65
2019-03-29T04:27:14.262Z,1019.67
2019-03-29T04:28:19.237Z,1019.70
2019-03-29T04:29:14.206Z,1019.68
2019-03-29T04:30:14.203Z,1019.65
2019-03-29T04:31:14.263Z,1019.64
2019-03-29T04:32:14.175Z,1019.68
2019-03-29T04:33:14.176Z,1019.66
2019-03-29T04:34:14.150Z,1019.72
2019-03-29T04:35:14.161Z,1019.74
2019-03-29T04:36:14.126Z,1019.67
2019-03-29T04:37:14.111Z,1019.69
2019-03-29T04:38:14.107Z,1019.73
2019-03-29T04:39:19.114Z,1019.80
2019-03-29T04:40:14.089Z,1019.77
2019-03-29T04:41:14.067Z,1019.73
2019-03-29T04:42:14.055Z,1019.78
2019-03-29T04:43:14.056Z,1019.77
2019-03-29T04:44:14.032Z,1019.85
2019-03-29T04:45:14.036Z,1019.74
2019-03-29T04:46:14.013Z,1019.77
2019-03-29T04:47:13.999Z,1019.77
2019-03-29T04:48:13.988Z,1019.77
2019-03-29T04:49:13.981Z,1019.76
2019-03-29T04:50:19.018Z,1019.69
2019-03-29T04:51:13.956Z,1019.70
2019-03-29T04:52:13.961Z,1019.77
2019-03-29T04:53:13.931Z,1019.74
2019-03-29T04:54:13.917Z,1019.73
2019-03-29T04:55:13.937Z,1019.73
2019-03-29T04:56:13.901Z,1019.82
2019-03-29T04:57:13.885Z,1019.73
2019-03-29T04:58:13.872Z,1019.72
2019-03-29T04:59:13.866Z,1019.73
2019-03-29T05:00:13.880Z,1019.73
2019-03-29T05:01:18.872Z,1019.72
2019-03-29T05:02:13.837Z,1019.76
2019-03-29T05:03:13.821Z,1019.78
2019-03-29T05:04:13.826Z,1019.74
2019-03-29T05:05:13.813Z,1019.75
2019-03-29T05:06:13.791Z,1019.78
2019-03-29T05:07:13.788Z,1019.80
2019-03-29T05:08:13.768Z,1019.78
2019-03-29T05:09:13.750Z,1019.73
2019-03-29T05:10:20.906Z,1019.77
2019-03-29T05:11:14.736Z,1019.79
2019-03-29T05:12:18.755Z,1019.81
2019-03-29T05:13:13.707Z,1019.85
2019-03-29T05:14:13.697Z,1019.84
2019-03-29T05:15:13.707Z,1019.76
2019-03-29T05:16:13.670Z,1019.80
2019-03-29T05:17:13.667Z,1019.79
2019-03-29T05:18:13.658Z,1019.85
2019-03-29T05:19:13.649Z,1019.87
2019-03-29T05:20:13.644Z,1019.92
2019-03-29T05:21:13.685Z,1019.86
2019-03-29T05:22:13.620Z,1019.85
2019-03-29T05:23:18.615Z,1019.87
2019-03-29T05:24:13.592Z,1019.86
2019-03-29T05:25:13.604Z,1019.87
2019-03-29T05:26:13.575Z,1019.86
2019-03-29T05:27:13.549Z,1019.87
2019-03-29T05:28:13.543Z,1019.85
2019-03-29T05:29:13.533Z,1019.88
2019-03-29T05:30:13.515Z,1019.91
2019-03-29T05:31:13.521Z,1019.91
2019-03-29T05:32:13.491Z,1019.90
2019-03-29T05:33:13.480Z,1019.99
2019-03-29T05:34:18.489Z,1019.88
2019-03-29T05:35:13.458Z,1019.94
2019-03-29T05:36:13.467Z,1019.91
2019-03-29T05:37:13.434Z,1019.90
2019-03-29T05:38:13.421Z,1019.89
2019-03-29T05:39:13.414Z,1019.84
2019-03-29T05:40:13.401Z,1019.88
2019-03-29T05:41:13.411Z,1019.81
2019-03-29T05:42:13.383Z,1019.78
2019-03-29T05:43:13.367Z,1019.81
2019-03-29T05:44:13.354Z,1019.81
2019-03-29T05:45:18.371Z,1019.82
2019-03-29T05:46:13.359Z,1019.79
2019-03-29T05:47:13.349Z,1019.81
2019-03-29T05:48:13.310Z,1019.78
2019-03-29T05:49:13.305Z,1019.85
2019-03-29T05:50:13.297Z,1019.86
2019-03-29T05:51:13.285Z,1019.88
2019-03-29T05:52:13.274Z,1019.85
2019-03-29T05:53:13.253Z,1019.86
2019-03-29T05:54:13.248Z,1019.78
2019-03-29T05:55:13.230Z,1019.83
2019-03-29T05:56:18.262Z,1019.89
2019-03-29T05:57:13.211Z,1019.84
2019-03-29T05:58:13.213Z,1019.84
2019-03-29T05:59:13.189Z,1019.88
2019-03-29T06:00:13.174Z,1019.85
2019-03-29T06:01:13.179Z,1019.90
2019-03-29T06:02:13.155Z,1019.87
2019-03-29T06:03:13.143Z,1019.83
2019-03-29T06:04:13.157Z,1019.85
2019-03-29T06:05:13.117Z,1019.84
2019-03-29T06:06:13.122Z,1019.85
2019-03-29T06:07:18.119Z,1019.84
2019-03-29T06:08:13.092Z,1019.81
2019-03-29T06:09:13.076Z,1019.79
2019-03-29T06:10:13.063Z,1019.86
2019-03-29T06:11:13.066Z,1019.83
2019-03-29T06:12:13.041Z,1019.88
2019-03-29T06:13:13.027Z,1019.86
2019-03-29T06:14:13.056Z,1019.89
2019-03-29T06:15:13.007Z,1019.91
2019-03-29T06:16:13.006Z,1019.90
2019-03-29T06:17:12.985Z,1019.84
2019-03-29T06:18:18.002Z,1019.85
2019-03-29T06:19:12.970Z,1019.85
2019-03-29T06:20:12.952Z,1019.83
2019-03-29T06:21:12.950Z,1019.86
2019-03-29T06:22:12.925Z,1019.85
2019-03-29T06:23:12.915Z,1019.78
2019-03-29T06:24:12.906Z,1019.75
2019-03-29T06:25:12.916Z,1019.78
2019-03-29T06:26:12.910Z,1019.77
2019-03-29T06:27:12.876Z,1019.84
2019-03-29T06:28:12.859Z,1019.81
2019-03-29T06:29:17.870Z,1019.84
2019-03-29T06:30:12.843Z,1019.87
2019-03-29T06:31:12.838Z,1019.78
2019-03-29T06:32:12.815Z,1019.86
2019-03-29T06:33:12.802Z,1019.83
2019-03-29T06:34:12.790Z,1019.83
2019-03-29T06:35:12.798Z,1019.90
2019-03-29T06:36:12.792Z,1019.87
2019-03-29T06:37:12.764Z,1019.85
2019-03-29T06:38:12.754Z,1019.86
2019-03-29T06:39:12.734Z,1019.87
2019-03-29T06:40:17.753Z,1019.89
2019-03-29T06:41:12.727Z,1019.84
2019-03-29T06:42:12.702Z,1019.89
2019-03-29T06:43:12.696Z,1019.80
2019-03-29T06:44:12.676Z,1019.84
2019-03-29T06:45:12.701Z,1019.88
2019-03-29T06:46:12.681Z,1019.81
2019-03-29T06:47:12.644Z,1019.83
2019-03-29T06:48:12.633Z,1019.90
2019-03-29T06:49:12.619Z,1019.88
2019-03-29T06:50:14.101Z,1019.78
2019-03-29T06:51:17.643Z,1019.76
2019-03-29T06:52:12.604Z,1019.82
2019-03-29T06:53:12.577Z,1019.78
2019-03-29T06:54:12.564Z,1019.80
2019-03-29T06:55:12.555Z,1019.76
2019-03-29T06:56:12.553Z,1019.78
2019-03-29T06:57:12.541Z,1019.75
2019-03-29T06:58:12.519Z,1019.77
2019-03-29T06:59:12.508Z,1019.75
2019-03-29T07:00:12.498Z,1019.81
2019-03-29T07:01:12.503Z,1019.84
2019-03-29T07:02:17.497Z,1019.82
2019-03-29T07:03:12.482Z,1019.86
2019-03-29T07:04:12.456Z,1019.82
2019-03-29T07:05:12.470Z,1019.73
2019-03-29T07:06:12.443Z,1019.78
2019-03-29T07:07:12.424Z,1019.76
2019-03-29T07:08:12.405Z,1019.73
2019-03-29T07:09:12.397Z,1019.70
2019-03-29T07:10:12.395Z,1019.71
2019-03-29T07:11:17.627Z,1019.75
2019-03-29T07:12:13.399Z,1019.75
2019-03-29T07:13:17.379Z,1019.74
2019-03-29T07:14:12.340Z,1019.75
2019-03-29T07:15:12.337Z,1019.75
2019-03-29T07:16:12.330Z,1019.77
2019-03-29T07:17:12.309Z,1019.76
2019-03-29T07:18:12.302Z,1019.75
2019-03-29T07:19:12.282Z,1019.73
2019-03-29T07:20:12.270Z,1019.69
2019-03-29T07:21:21.327Z,1019.81
2019-03-29T07:22:13.246Z,1019.80
2019-03-29T07:23:12.242Z,1019.83
2019-03-29T07:24:17.248Z,1019.81
2019-03-29T07:25:12.216Z,1019.75
2019-03-29T07:26:12.222Z,1019.67
2019-03-29T07:27:12.192Z,1019.64
2019-03-29T07:28:12.188Z,1019.65
2019-03-29T07:29:12.177Z,1019.66
2019-03-29T07:30:12.165Z,1019.57
2019-03-29T07:31:12.160Z,1019.71
2019-03-29T07:32:12.141Z,1019.71
2019-03-29T07:33:12.125Z,1019.69
2019-03-29T07:34:12.112Z,1019.67
2019-03-29T07:35:17.123Z,1019.71
2019-03-29T07:36:12.099Z,1019.67
2019-03-29T07:37:12.079Z,1019.64
2019-03-29T07:38:12.071Z,1019.68
2019-03-29T07:39:12.060Z,1019.75
2019-03-29T07:40:12.046Z,1019.72
2019-03-29T07:41:12.038Z,1019.73
2019-03-29T07:42:12.032Z,1019.64
2019-03-29T07:43:12.017Z,1019.67
2019-03-29T07:44:12.002Z,1019.65
2019-03-29T07:45:12.006Z,1019.72
2019-03-29T07:46:17.001Z,1019.73
2019-03-29T07:47:11.982Z,1019.72
2019-03-29T07:48:11.953Z,1019.70
2019-03-29T07:49:11.942Z,1019.69
2019-03-29T07:50:11.939Z,1019.55
2019-03-29T07:51:11.956Z,1019.66
2019-03-29T07:52:11.909Z,1019.72
2019-03-29T07:53:11.913Z,1019.63
2019-03-29T07:54:11.889Z,1019.62
2019-03-29T07:55:11.875Z,1019.61
2019-03-29T07:56:11.868Z,1019.58
2019-03-29T07:57:16.875Z,1019.69
2019-03-29T07:58:11.848Z,1019.70
2019-03-29T07:59:11.835Z,1019.65
2019-03-29T08:00:11.817Z,1019.77
2019-03-29T08:01:11.809Z,1019.68
2019-03-29T08:02:11.796Z,1019.66
2019-03-29T08:03:11.785Z,1019.65
2019-03-29T08:04:11.780Z,1019.62
2019-03-29T08:05:11.773Z,1019.61
2019-03-29T08:06:12.104Z,1019.69
2019-03-29T08:07:11.747Z,1019.65
2019-03-29T08:08:23.815Z,1019.63
2019-03-29T08:09:22.387Z,1019.65
2019-03-29T08:10:24.175Z,1019.54
2019-03-29T08:11:25.429Z,1019.53
2019-03-29T08:12:12.685Z,1019.58
2019-03-29T08:13:11.692Z,1019.63
2019-03-29T08:14:14.778Z,1019.63
2019-03-29T08:15:11.654Z,1019.60
2019-03-29T08:16:11.641Z,1019.62
2019-03-29T08:17:11.629Z,1019.64
2019-03-29T08:18:11.623Z,1019.61
2019-03-29T08:19:16.626Z,1019.64
2019-03-29T08:20:38.182Z,1019.61
2019-03-29T08:21:12.611Z,1019.64
2019-03-29T08:22:11.569Z,1019.63
2019-03-29T08:23:11.565Z,1019.59
2019-03-29T08:24:11.557Z,1019.60
2019-03-29T08:25:11.540Z,1019.59
2019-03-29T08:26:11.535Z,1019.61
2019-03-29T08:27:11.520Z,1019.59
2019-03-29T08:28:11.500Z,1019.66
2019-03-29T08:29:11.494Z,1019.59
2019-03-29T08:30:16.502Z,1019.59
2019-03-29T08:31:11.467Z,1019.52
2019-03-29T08:32:11.459Z,1019.51
2019-03-29T08:33:11.450Z,1019.57
2019-03-29T08:34:11.433Z,1019.60
2019-03-29T08:35:11.426Z,1019.61
2019-03-29T08:36:11.415Z,1019.52
2019-03-29T08:37:11.401Z,1019.54
2019-03-29T08:38:11.407Z,1019.60
2019-03-29T08:39:11.377Z,1019.57
2019-03-29T08:40:11.365Z,1019.46
2019-03-29T08:41:16.387Z,1019.47
2019-03-29T08:42:11.342Z,1019.50
2019-03-29T08:43:11.345Z,1019.55
2019-03-29T08:44:12.001Z,1019.54
2019-03-29T08:45:11.311Z,1019.42
2019-03-29T08:46:11.304Z,1019.41
2019-03-29T08:47:11.290Z,1019.45
2019-03-29T08:48:11.284Z,1019.40
2019-03-29T08:49:11.280Z,1019.38
2019-03-29T08:50:11.256Z,1019.43
2019-03-29T08:51:11.243Z,1019.40
2019-03-29T08:52:16.258Z,1019.37
2019-03-29T08:53:11.224Z,1019.34
2019-03-29T08:54:11.210Z,1019.42
2019-03-29T08:55:11.202Z,1019.29
2019-03-29T08:56:11.197Z,1019.40
2019-03-29T08:57:11.182Z,1019.34
2019-03-29T08:58:11.166Z,1019.41
2019-03-29T08:59:11.178Z,1019.35
2019-03-29T09:00:11.149Z,1019.38
2019-03-29T09:01:11.133Z,1019.40
2019-03-29T09:02:11.127Z,1019.38
2019-03-29T09:03:16.135Z,1019.27
2019-03-29T09:04:11.098Z,1019.33
2019-03-29T09:05:11.089Z,1019.27
2019-03-29T09:06:11.085Z,1019.22
2019-03-29T09:07:11.069Z,1019.23
2019-03-29T09:08:11.064Z,1019.27
2019-03-29T09:09:12.131Z,1019.25
2019-03-29T09:10:11.033Z,1019.15
2019-03-29T09:11:11.022Z,1019.26
2019-03-29T09:12:14.592Z,1019.23
2019-03-29T09:13:10.997Z,1019.28
2019-03-29T09:14:16.011Z,1019.25
2019-03-29T09:15:10.976Z,1019.16
2019-03-29T09:16:10.965Z,1019.14
2019-03-29T09:17:10.957Z,1019.09
2019-03-29T09:18:10.957Z,1019.00
2019-03-29T09:19:10.930Z,1019.06
2019-03-29T09:20:10.920Z,1019.04
2019-03-29T09:21:10.931Z,1019.14
2019-03-29T09:22:10.914Z,1019.22
2019-03-29T09:23:10.945Z,1019.20
2019-03-29T09:24:22.010Z,1019.15
2019-03-29T09:25:16.907Z,1019.08
2019-03-29T09:26:10.856Z,1019.07
2019-03-29T09:27:10.854Z,1019.05
2019-03-29T09:28:10.855Z,1019.07
2019-03-29T09:29:10.841Z,1019.00
2019-03-29T09:30:10.843Z,1019.09
2019-03-29T09:31:10.798Z,1019.02
2019-03-29T09:32:10.826Z,1019.04
2019-03-29T09:33:10.773Z,1018.99
2019-03-29T09:34:10.769Z,1018.99
2019-03-29T09:35:10.836Z,1019.01
2019-03-29T09:36:15.765Z,1019.01
2019-03-29T09:37:10.748Z,1018.90
2019-03-29T09:38:10.716Z,1018.98
2019-03-29T09:39:10.704Z,1019.02
2019-03-29T09:40:13.756Z,1018.98
2019-03-29T09:41:10.689Z,1019.01
2019-03-29T09:42:10.679Z,1019.06
2019-03-29T09:43:10.659Z,1019.08
2019-03-29T09:44:10.688Z,1019.10
2019-03-29T09:45:10.640Z,1019.06
2019-03-29T09:46:10.628Z,1019.01
2019-03-29T09:47:15.645Z,1019.04
2019-03-29T09:48:10.613Z,1019.07
2019-03-29T09:49:10.593Z,1018.99
2019-03-29T09:50:10.924Z,1018.84
2019-03-29T09:51:10.573Z,1018.90
2019-03-29T09:52:10.571Z,1018.87
2019-03-29T09:53:10.555Z,1019.03
2019-03-29T09:54:10.538Z,1018.92
2019-03-29T09:55:10.536Z,1018.83
2019-03-29T09:56:10.515Z,1018.87
2019-03-29T09:57:15.047Z,1018.83
2019-03-29T09:58:16.989Z,1019.00
2019-03-29T09:59:10.489Z,1018.95
2019-03-29T10:00:19.339Z,1018.94
2019-03-29T10:01:11.492Z,1018.83
2019-03-29T10:02:10.455Z,1018.86
2019-03-29T10:03:10.459Z,1019.03
2019-03-29T10:04:10.437Z,1019.00
2019-03-29T10:05:10.415Z,1018.84
2019-03-29T10:06:10.403Z,1019.00
2019-03-29T10:07:10.405Z,1018.99
2019-03-29T10:08:10.382Z,1018.84
2019-03-29T10:09:15.393Z,1018.84
2019-03-29T10:10:10.362Z,1018.86
2019-03-29T10:11:10.351Z,1018.87
2019-03-29T10:12:10.338Z,1018.77
2019-03-29T10:13:10.324Z,1018.77
2019-03-29T10:14:10.314Z,1018.89
2019-03-29T10:15:10.303Z,1018.79
2019-03-29T10:16:10.301Z,1018.84
2019-03-29T10:17:10.289Z,1018.78
2019-03-29T10:18:10.268Z,1018.73
2019-03-29T10:19:10.255Z,1018.67
2019-03-29T10:20:15.268Z,1018.74
2019-03-29T10:21:10.238Z,1018.72
2019-03-29T10:22:10.239Z,1018.75
2019-03-29T10:23:10.212Z,1018.74
2019-03-29T10:24:10.238Z,1018.77
2019-03-29T10:25:19.361Z,1018.76
2019-03-29T10:26:11.181Z,1018.66
2019-03-29T10:27:10.169Z,1018.67
2019-03-29T10:28:10.155Z,1018.74
2019-03-29T10:29:10.154Z,1018.66
2019-03-29T10:30:10.136Z,1018.67
2019-03-29T10:31:15.152Z,1018.62
2019-03-29T10:32:10.116Z,1018.64
2019-03-29T10:33:10.100Z,1018.59
2019-03-29T10:34:10.091Z,1018.60
2019-03-29T10:35:10.094Z,1018.59
2019-03-29T10:36:10.064Z,1018.51
2019-03-29T10:37:10.058Z,1018.58
2019-03-29T10:38:10.043Z,1018.54
2019-03-29T10:39:10.040Z,1018.48
2019-03-29T10:40:10.029Z,1018.48
2019-03-29T10:41:10.012Z,1018.45
2019-03-29T10:42:15.021Z,1018.47
2019-03-29T10:43:09.990Z,1018.44
2019-03-29T10:44:09.976Z,1018.40
2019-03-29T10:45:09.961Z,1018.34
2019-03-29T10:46:09.952Z,1018.38
2019-03-29T10:47:09.941Z,1018.41
2019-03-29T10:48:09.930Z,1018.41
2019-03-29T10:49:09.917Z,1018.38
2019-03-29T10:50:09.909Z,1018.53
2019-03-29T10:51:09.906Z,1018.34
2019-03-29T10:52:09.924Z,1018.34
2019-03-29T10:53:14.923Z,1018.35
2019-03-29T10:54:09.861Z,1018.36
2019-03-29T10:55:09.854Z,1018.39
2019-03-29T10:56:09.837Z,1018.28
2019-03-29T10:57:09.830Z,1018.25
2019-03-29T10:58:10.165Z,1018.32
2019-03-29T10:59:09.804Z,1018.28
2019-03-29T11:00:09.793Z,1018.43
2019-03-29T11:01:09.778Z,1018.27
2019-03-29T11:02:09.781Z,1018.30
2019-03-29T11:03:09.758Z,1018.43
2019-03-29T11:04:14.783Z,1018.32
2019-03-29T11:05:09.733Z,1018.30
2019-03-29T11:06:09.724Z,1018.13
2019-03-29T11:07:09.714Z,1018.17
2019-03-29T11:08:11.770Z,1018.30
2019-03-29T11:09:09.688Z,1018.34
2019-03-29T11:10:09.685Z,1018.30
2019-03-29T11:11:09.673Z,1018.27
2019-03-29T11:12:09.678Z,1018.27
2019-03-29T11:13:13.117Z,1018.16
2019-03-29T11:14:09.650Z,1018.23
2019-03-29T11:15:14.643Z,1018.24
2019-03-29T11:16:09.610Z,1018.13
2019-03-29T11:17:09.620Z,1018.23
2019-03-29T11:18:09.661Z,1018.22
2019-03-29T11:19:09.591Z,1018.16
2019-03-29T11:20:09.588Z,1018.21
2019-03-29T11:21:09.555Z,1018.13
2019-03-29T11:22:09.553Z,1018.04
2019-03-29T11:23:09.550Z,1018.14
2019-03-29T11:24:09.646Z,1018.07
2019-03-29T11:25:09.519Z,1018.02
2019-03-29T11:26:14.520Z,1018.06
2019-03-29T11:27:09.500Z,1018.09
2019-03-29T11:28:09.477Z,1018.05
2019-03-29T11:29:09.476Z,1018.09
2019-03-29T11:30:09.459Z,1018.12
2019-03-29T11:31:09.464Z,1018.08
2019-03-29T11:32:09.450Z,1018.07
2019-03-29T11:33:09.418Z,1018.05
2019-03-29T11:34:09.409Z,1018.01
2019-03-29T11:35:09.403Z,1017.98
2019-03-29T11:36:09.399Z,1018.05
2019-03-29T11:37:14.418Z,1018.05
2019-03-29T11:38:09.362Z,1018.07
2019-03-29T11:39:09.352Z,1018.04
2019-03-29T11:40:09.341Z,1018.04
2019-03-29T11:41:09.332Z,1018.05
2019-03-29T11:42:09.362Z,1017.96
2019-03-29T11:43:09.344Z,1018.06
2019-03-29T11:44:09.294Z,1017.98
2019-03-29T11:45:09.283Z,1017.99
2019-03-29T11:46:09.277Z,1017.84
2019-03-29T11:47:09.278Z,1017.86
2019-03-29T11:48:14.274Z,1017.90
2019-03-29T11:49:09.257Z,1017.85
2019-03-29T11:50:09.224Z,1017.79
2019-03-29T11:51:19.394Z,1017.85
2019-03-29T11:52:10.216Z,1017.71
2019-03-29T11:53:09.220Z,1017.71
2019-03-29T11:54:09.222Z,1017.74
2019-03-29T11:55:09.221Z,1017.88
2019-03-29T11:56:09.181Z,1017.87
2019-03-29T11:57:09.166Z,1017.86
2019-03-29T11:58:09.174Z,1017.77
2019-03-29T11:59:14.148Z,1017.82
2019-03-29T12:00:09.127Z,1017.78
2019-03-29T12:01:09.108Z,1017.84
2019-03-29T12:02:09.094Z,1017.78
2019-03-29T12:03:09.827Z,1017.75
2019-03-29T12:04:09.086Z,1017.87
2019-03-29T12:05:09.097Z,1017.82